Time;durP1;ratioP1;P1;durP2;ratioP2;P2;SDS_P1;SDS_P2;PMS_P1;PMS_P2;Temp;Humidity;BMP_temperature;BMP_pressure;BME280_temperature;BME280_humidity;BME280_pressure;Samples;Min_cycle;Max_cycle;Signal;HPM_P1;HPM_P2
2021/06/26 00:01:19;;;;;;;13.75;12.75;;;14.10;80.00;;;;;;5155010;28;20560;-68
2021/06/26 00:03:51;;;;;;;13.95;12.82;;;14.10;79.80;;;;;;5158861;28;20143;-68
2021/06/26 00:06:24;;;;;;;13.63;12.63;;;14.00;79.90;;;;;;5158674;28;20043;-67
2021/06/26 00:08:56;;;;;;;14.23;13.10;;;14.00;79.70;;;;;;5162998;28;20112;-67
2021/06/26 00:11:28;;;;;;;13.63;12.63;;;14.00;79.60;;;;;;5163694;28;20038;-67
2021/06/26 00:14:00;;;;;;;13.65;12.55;;;13.90;80.10;;;;;;5162733;28;20100;-67
2021/06/26 00:16:32;;;;;;;13.90;12.80;;;13.90;79.50;;;;;;5157697;28;20042;-68
2021/06/26 00:19:05;;;;;;;13.25;12.15;;;13.90;80.30;;;;;;5166456;28;20121;-67
2021/06/26 00:21:36;;;;;;;14.35;12.85;;;13.90;80.10;;;;;;5162486;28;20047;-68
2021/06/26 00:24:08;;;;;;;13.75;12.55;;;13.90;80.40;;;;;;5165046;28;20161;-67
2021/06/26 00:26:40;;;;;;;13.75;12.65;;;13.90;79.40;;;;;;5162253;28;20095;-67
2021/06/26 00:29:12;;;;;;;13.40;12.40;;;13.90;80.00;;;;;;5160905;28;20100;-67
2021/06/26 00:31:44;;;;;;;14.00;12.77;;;13.80;80.30;;;;;;5161175;28;20092;-67
2021/06/26 00:34:16;;;;;;;13.52;12.52;;;13.80;79.90;;;;;;5162910;28;20052;-67
2021/06/26 00:36:48;;;;;;;13.57;12.48;;;13.80;81.50;;;;;;5136368;28;20141;-67
2021/06/26 00:39:20;;;;;;;14.15;12.95;;;13.80;80.30;;;;;;5161943;28;20114;-66
2021/06/26 00:41:52;;;;;;;13.73;12.63;;;13.70;80.50;;;;;;5161035;28;20062;-67
2021/06/26 00:44:28;;;;;;;13.43;12.30;;;13.70;80.50;;;;;;5163122;28;20149;-67
2021/06/26 00:47:10;;;;;;;14.02;12.73;;;13.60;80.30;;;;;;5162617;28;21550;-67
2021/06/26 00:49:43;;;;;;;13.70;12.60;;;13.60;80.30;;;;;;5163534;28;20052;-68
2021/06/26 00:52:15;;;;;;;14.13;12.98;;;13.60;80.10;;;;;;5161885;28;20507;-67
2021/06/26 00:54:47;;;;;;;14.10;12.90;;;13.60;80.00;;;;;;5162324;28;20137;-67
2021/06/26 00:57:20;;;;;;;14.07;13.07;;;13.60;79.90;;;;;;5146344;28;20129;-68
2021/06/26 00:59:52;;;;;;;14.25;13.05;;;13.60;80.20;;;;;;5157633;28;20108;-68
2021/06/26 01:02:24;;;;;;;13.35;12.23;;;13.50;80.00;;;;;;5161016;28;20057;-68
2021/06/26 01:04:56;;;;;;;14.20;13.00;;;13.50;80.10;;;;;;5163540;28;20125;-68
2021/06/26 01:07:28;;;;;;;14.20;13.10;;;13.40;80.30;;;;;;5160770;28;20459;-68
2021/06/26 01:10:00;;;;;;;14.23;13.13;;;13.40;80.20;;;;;;5162266;28;20058;-67
2021/06/26 01:12:32;;;;;;;14.27;13.23;;;13.30;80.60;;;;;;5161724;28;20104;-67
2021/06/26 01:15:06;;;;;;;14.63;13.40;;;13.30;81.20;;;;;;5160759;28;20061;-67
2021/06/26 01:17:38;;;;;;;14.32;13.23;;;13.30;81.00;;;;;;5161110;28;20511;-68
2021/06/26 01:20:11;;;;;;;13.77;12.57;;;13.30;80.50;;;;;;5160217;28;20038;-68
2021/06/26 01:22:55;;;;;;;13.75;12.75;;;13.40;81.80;;;;;;5160738;28;20069;-67
2021/06/26 01:25:29;;;;;;;14.02;12.98;;;13.40;81.10;;;;;;5147566;28;20062;-67
2021/06/26 01:28:00;;;;;;;14.30;13.18;;;13.30;80.90;;;;;;5163948;28;20143;-66
2021/06/26 01:30:35;;;;;;;14.35;13.25;;;13.30;80.20;;;;;;5160596;28;20171;-67
2021/06/26 01:33:07;;;;;;;14.45;13.35;;;13.30;80.50;;;;;;5159592;28;20283;-69
2021/06/26 01:35:39;;;;;;;14.60;13.50;;;13.30;80.60;;;;;;5157396;28;20526;-68
2021/06/26 01:38:12;;;;;;;14.02;12.93;;;13.30;80.40;;;;;;5154367;28;20050;-68
2021/06/26 01:40:43;;;;;;;14.32;13.05;;;13.30;80.40;;;;;;5161268;28;20133;-67
2021/06/26 01:43:15;;;;;;;14.15;13.07;;;13.30;80.10;;;;;;5158769;28;20070;-68
2021/06/26 01:45:48;;;;;;;14.35;12.93;;;13.30;80.40;;;;;;5160733;28;20073;-67
2021/06/26 01:48:21;;;;;;;14.27;13.18;;;13.20;80.00;;;;;;5161336;28;20105;-67
2021/06/26 01:50:53;;;;;;;14.43;13.32;;;13.20;79.90;;;;;;5159908;28;20138;-67
2021/06/26 01:53:25;;;;;;;13.88;12.88;;;13.20;80.00;;;;;;5158696;28;20061;-67
2021/06/26 01:55:57;;;;;;;14.63;13.35;;;13.10;80.90;;;;;;5156729;28;20141;-66
2021/06/26 01:58:29;;;;;;;14.20;13.10;;;13.10;81.50;;;;;;5161405;28;20125;-67
2021/06/26 02:01:01;;;;;;;15.27;13.98;;;13.00;81.90;;;;;;5160766;28;20465;-67
2021/06/26 02:03:33;;;;;;;14.50;13.30;;;13.00;82.50;;;;;;5161323;28;20157;-67
2021/06/26 02:06:05;;;;;;;14.77;13.55;;;13.00;81.30;;;;;;5159866;28;20546;-67
2021/06/26 02:08:37;;;;;;;14.82;13.40;;;13.10;81.40;;;;;;5160053;28;20046;-67
2021/06/26 02:11:09;;;;;;;14.98;13.77;;;13.10;82.40;;;;;;5160474;28;20081;-67
2021/06/26 02:13:40;;;;;;;14.43;13.32;;;13.00;82.80;;;;;;5160357;28;20046;-68
2021/06/26 02:16:12;;;;;;;14.10;13.00;;;12.90;83.40;;;;;;5158284;28;20066;-67
2021/06/26 02:18:44;;;;;;;15.38;14.18;;;12.80;83.90;;;;;;5159962;28;20156;-67
2021/06/26 02:21:17;;;;;;;14.52;13.43;;;12.80;84.80;;;;;;5148245;28;20116;-67
2021/06/26 02:23:49;;;;;;;14.90;13.80;;;12.80;84.60;;;;;;5160794;28;20045;-68
2021/06/26 02:26:21;;;;;;;14.93;13.73;;;12.80;84.70;;;;;;5157506;28;20138;-68
2021/06/26 02:28:53;;;;;;;14.25;13.15;;;12.80;83.30;;;;;;5160772;28;20472;-68
2021/06/26 02:31:25;;;;;;;14.85;13.68;;;12.70;82.90;;;;;;5162959;28;20116;-68
2021/06/26 02:33:57;;;;;;;14.25;13.18;;;12.70;82.70;;;;;;5158993;28;20042;-68
2021/06/26 02:36:29;;;;;;;14.45;13.35;;;12.60;82.40;;;;;;5161456;28;20120;-68
2021/06/26 02:39:01;;;;;;;14.38;13.27;;;12.50;82.70;;;;;;5160237;28;20480;-68
2021/06/26 02:41:33;;;;;;;14.60;13.50;;;12.50;82.90;;;;;;5158803;28;20065;-69
2021/06/26 02:44:05;;;;;;;14.27;13.18;;;12.50;82.90;;;;;;5158806;28;20112;-68
2021/06/26 02:46:37;;;;;;;14.68;13.48;;;12.40;83.50;;;;;;5156122;28;20054;-68
2021/06/26 02:49:09;;;;;;;14.68;13.50;;;12.50;83.70;;;;;;5146503;28;20052;-68
2021/06/26 02:51:41;;;;;;;14.20;13.00;;;12.60;83.90;;;;;;5163641;28;20046;-68
2021/06/26 02:54:13;;;;;;;13.90;12.60;;;12.70;83.50;;;;;;5158700;28;20101;-68
2021/06/26 02:56:45;;;;;;;14.25;13.15;;;12.70;82.20;;;;;;5157348;28;20424;-68
2021/06/26 02:59:16;;;;;;;13.95;12.77;;;12.70;82.20;;;;;;5159764;28;20081;-69
2021/06/26 03:01:48;;;;;;;14.05;12.95;;;12.80;82.00;;;;;;5162663;28;20555;-69
2021/06/26 03:04:20;;;;;;;14.00;12.90;;;12.70;82.80;;;;;;5160824;28;20451;-69
2021/06/26 03:06:52;;;;;;;14.10;13.10;;;12.70;82.70;;;;;;5160627;28;20057;-68
2021/06/26 03:09:24;;;;;;;14.10;13.00;;;12.70;82.40;;;;;;5144799;28;20050;-68
2021/06/26 03:11:56;;;;;;;14.15;13.05;;;12.60;82.80;;;;;;5144549;28;20189;-68
2021/06/26 03:14:28;;;;;;;14.63;13.48;;;12.60;82.20;;;;;;5162346;28;20066;-68
2021/06/26 03:17:00;;;;;;;14.13;13.02;;;12.60;82.40;;;;;;5159245;28;20516;-68
2021/06/26 03:19:32;;;;;;;14.13;13.02;;;12.70;82.40;;;;;;5160405;28;20148;-68
2021/06/26 03:22:04;;;;;;;14.30;13.20;;;12.70;82.00;;;;;;5158792;28;20123;-68
2021/06/26 03:24:36;;;;;;;14.43;13.32;;;12.70;82.80;;;;;;5164186;28;20100;-68
2021/06/26 03:27:08;;;;;;;14.55;13.25;;;12.60;82.70;;;;;;5161067;28;20140;-69
2021/06/26 03:29:40;;;;;;;13.82;12.73;;;12.60;82.70;;;;;;5162262;28;20049;-68
2021/06/26 03:32:12;;;;;;;14.18;13.07;;;12.60;82.20;;;;;;5160553;28;20050;-68
2021/06/26 03:34:44;;;;;;;14.23;13.02;;;12.60;81.90;;;;;;5163483;28;20529;-69
2021/06/26 03:37:15;;;;;;;14.25;13.15;;;12.60;81.80;;;;;;5158425;28;20488;-68
2021/06/26 03:39:47;;;;;;;14.13;13.00;;;12.60;81.70;;;;;;5160853;28;20563;-68
2021/06/26 03:42:19;;;;;;;14.23;12.95;;;12.60;81.40;;;;;;5158584;28;20073;-68
2021/06/26 03:44:51;;;;;;;14.10;13.00;;;12.60;81.50;;;;;;5160995;28;20120;-68
2021/06/26 03:47:25;;;;;;;14.88;13.57;;;12.60;81.00;;;;;;5161801;28;20042;-68
2021/06/26 03:49:57;;;;;;;14.57;13.20;;;12.60;81.40;;;;;;5159258;28;20054;-68
2021/06/26 03:52:29;;;;;;;14.38;13.27;;;12.60;81.20;;;;;;5165435;28;20043;-68
2021/06/26 03:55:01;;;;;;;14.30;12.98;;;12.60;81.00;;;;;;5161566;28;20050;-68
2021/06/26 03:57:33;;;;;;;14.88;13.77;;;12.60;81.60;;;;;;5158338;28;20126;-68
2021/06/26 04:00:07;;;;;;;14.60;13.50;;;12.60;81.10;;;;;;5158781;28;20454;-68
2021/06/26 04:02:39;;;;;;;14.13;13.02;;;12.60;80.50;;;;;;5160389;28;20112;-70
2021/06/26 04:05:11;;;;;;;14.55;13.30;;;12.60;81.10;;;;;;5157954;28;20124;-69
2021/06/26 04:07:42;;;;;;;14.20;13.10;;;12.60;81.10;;;;;;5160712;28;20120;-68
2021/06/26 04:10:14;;;;;;;14.52;13.32;;;12.60;81.70;;;;;;5160222;28;20099;-68
2021/06/26 04:12:46;;;;;;;14.27;13.18;;;12.60;81.30;;;;;;5160615;28;20528;-67
2021/06/26 04:15:18;;;;;;;14.52;13.25;;;12.60;80.70;;;;;;5161753;28;20066;-67
2021/06/26 04:17:50;;;;;;;14.60;13.50;;;12.60;80.90;;;;;;5157450;28;20460;-67
2021/06/26 04:20:22;;;;;;;14.93;13.68;;;12.70;81.10;;;;;;5144075;28;20440;-67
2021/06/26 04:22:54;;;;;;;14.32;13.23;;;12.60;81.50;;;;;;5126606;28;20133;-67
2021/06/26 04:25:27;;;;;;;14.18;13.07;;;12.60;81.30;;;;;;5159878;28;20133;-68
2021/06/26 04:28:11;;;;;;;14.45;13.35;;;12.70;81.40;;;;;;5160133;28;20115;-68
2021/06/26 04:30:46;;;;;;;14.90;13.70;;;12.60;80.80;;;;;;5137239;28;20707;-68
2021/06/26 04:33:18;;;;;;;14.25;13.07;;;12.60;82.20;;;;;;5146138;28;20444;-68
2021/06/26 04:35:50;;;;;;;14.05;12.90;;;12.60;82.40;;;;;;5141974;28;20570;-68
2021/06/26 04:38:22;;;;;;;14.43;13.15;;;12.70;80.80;;;;;;5160728;28;20034;-67
2021/06/26 04:40:55;;;;;;;14.55;13.35;;;12.80;81.40;;;;;;5157561;28;20429;-67
2021/06/26 04:43:27;;;;;;;15.13;13.93;;;13.00;80.40;;;;;;5160059;28;20107;-68
2021/06/26 04:45:59;;;;;;;14.73;13.63;;;13.10;82.10;;;;;;5156384;28;20038;-67
2021/06/26 04:48:31;;;;;;;14.95;13.60;;;13.20;82.80;;;;;;5159887;28;20385;-67
2021/06/26 04:51:03;;;;;;;14.40;13.30;;;13.30;82.70;;;;;;5159140;28;20757;-67
2021/06/26 04:53:35;;;;;;;14.65;13.55;;;13.40;82.60;;;;;;5145662;28;20057;-67
2021/06/26 04:56:07;;;;;;;14.40;13.30;;;13.50;82.50;;;;;;5159739;28;20039;-67
2021/06/26 04:58:39;;;;;;;15.18;13.95;;;13.60;82.30;;;;;;5162922;28;20061;-67
2021/06/26 05:01:11;;;;;;;15.43;14.23;;;13.60;82.10;;;;;;5162897;28;20038;-70
2021/06/26 05:03:43;;;;;;;15.70;14.50;;;13.70;81.50;;;;;;5161679;28;20440;-68
2021/06/26 05:06:16;;;;;;;15.13;14.02;;;13.80;81.00;;;;;;5162186;28;20074;-68
2021/06/26 05:08:48;;;;;;;15.75;14.52;;;13.90;81.60;;;;;;5162702;28;20145;-69
2021/06/26 05:11:20;;;;;;;15.10;14.00;;;14.00;81.50;;;;;;5158195;28;20140;-69
2021/06/26 05:13:52;;;;;;;15.80;14.43;;;14.10;80.80;;;;;;5160210;28;20680;-69
2021/06/26 05:16:24;;;;;;;16.15;14.90;;;14.30;80.70;;;;;;5154004;28;20070;-70
2021/06/26 05:18:56;;;;;;;15.32;14.20;;;14.30;80.90;;;;;;5160960;28;20050;-69
2021/06/26 05:21:28;;;;;;;15.73;14.43;;;14.40;80.30;;;;;;5161017;28;20050;-69
2021/06/26 05:23:59;;;;;;;14.77;13.68;;;14.50;80.00;;;;;;5158894;28;20117;-70
2021/06/26 05:26:31;;;;;;;15.43;14.23;;;14.70;80.40;;;;;;5160651;28;20140;-69
2021/06/26 05:29:03;;;;;;;15.88;14.63;;;14.80;80.00;;;;;;5160691;28;20120;-70
2021/06/26 05:31:35;;;;;;;15.50;14.30;;;14.90;79.30;;;;;;5158675;28;20066;-70
2021/06/26 05:34:07;;;;;;;15.48;14.27;;;14.90;79.20;;;;;;5160143;28;20046;-70
2021/06/26 05:36:39;;;;;;;15.02;13.93;;;15.10;78.40;;;;;;5159779;28;20110;-69
2021/06/26 05:39:11;;;;;;;15.13;14.02;;;15.20;77.70;;;;;;5158320;28;20049;-70
2021/06/26 05:41:43;;;;;;;14.80;13.70;;;15.20;77.80;;;;;;5158630;28;20082;-70
2021/06/26 05:44:15;;;;;;;15.23;14.13;;;15.40;77.50;;;;;;5160019;28;20042;-70
2021/06/26 05:46:48;;;;;;;15.63;14.43;;;15.40;77.40;;;;;;5159851;28;20065;-70
2021/06/26 05:49:20;;;;;;;15.88;14.65;;;15.60;78.20;;;;;;5158590;28;20096;-69
2021/06/26 05:51:52;;;;;;;15.82;14.63;;;15.70;77.10;;;;;;5163738;28;20054;-71
2021/06/26 05:54:23;;;;;;;15.40;14.30;;;15.70;76.30;;;;;;5157436;28;20042;-70
2021/06/26 05:56:55;;;;;;;16.10;14.90;;;15.80;76.30;;;;;;5157114;28;20093;-69
2021/06/26 05:59:27;;;;;;;16.05;14.75;;;15.90;76.60;;;;;;5161476;28;20045;-69
2021/06/26 06:01:59;;;;;;;15.77;14.57;;;16.00;76.40;;;;;;5157317;28;20121;-68
2021/06/26 06:04:31;;;;;;;15.90;14.70;;;16.10;75.90;;;;;;5157170;28;20110;-68
2021/06/26 06:07:03;;;;;;;15.88;14.57;;;16.20;75.60;;;;;;5157481;28;20046;-68
2021/06/26 06:09:35;;;;;;;15.50;14.30;;;16.20;75.30;;;;;;5158113;28;20050;-69
2021/06/26 06:12:08;;;;;;;15.20;14.10;;;16.30;74.80;;;;;;5159798;28;20153;-70
2021/06/26 06:14:39;;;;;;;15.38;14.27;;;16.40;74.80;;;;;;5158499;28;20125;-69
2021/06/26 06:17:11;;;;;;;15.63;14.43;;;16.50;74.20;;;;;;5158575;28;20121;-70
2021/06/26 06:19:43;;;;;;;15.23;14.05;;;16.60;74.10;;;;;;5163081;28;20050;-68
2021/06/26 06:22:15;;;;;;;15.55;14.40;;;16.60;74.00;;;;;;5162489;28;20440;-69
2021/06/26 06:24:47;;;;;;;15.48;14.35;;;16.70;73.90;;;;;;5158765;28;20050;-68
2021/06/26 06:27:20;;;;;;;15.70;14.50;;;16.80;73.10;;;;;;5159769;28;20520;-69
2021/06/26 06:29:52;;;;;;;16.30;15.05;;;16.90;73.70;;;;;;5162926;28;20092;-69
2021/06/26 06:32:24;;;;;;;15.70;14.60;;;17.00;73.20;;;;;;5161101;28;20038;-68
2021/06/26 06:34:57;;;;;;;15.95;14.75;;;17.10;73.60;;;;;;5159680;28;20033;-69
2021/06/26 06:37:29;;;;;;;15.85;14.65;;;17.20;72.80;;;;;;5157871;28;20046;-71
2021/06/26 06:40:01;;;;;;;16.25;15.05;;;17.30;73.40;;;;;;5155527;28;20050;-69
2021/06/26 06:42:33;;;;;;;16.48;15.27;;;17.40;73.40;;;;;;5156998;28;20047;-68
2021/06/26 06:45:06;;;;;;;16.00;14.77;;;17.50;73.80;;;;;;5154646;28;20145;-70
2021/06/26 06:47:39;;;;;;;16.25;15.05;;;17.60;73.20;;;;;;5154995;28;20065;-70
2021/06/26 06:50:12;;;;;;;16.98;15.57;;;17.80;73.90;;;;;;5156555;28;20145;-70
2021/06/26 06:52:44;;;;;;;16.77;15.48;;;17.90;74.50;;;;;;5156187;28;20097;-70
2021/06/26 06:55:16;;;;;;;16.58;15.38;;;18.00;73.30;;;;;;5158128;28;20097;-70
2021/06/26 06:57:48;;;;;;;16.70;15.50;;;18.10;73.50;;;;;;5159028;28;20043;-70
2021/06/26 07:00:20;;;;;;;16.38;15.18;;;18.20;72.50;;;;;;5159069;28;20128;-70
2021/06/26 07:02:52;;;;;;;16.38;15.18;;;18.30;73.50;;;;;;5160589;28;20042;-72
2021/06/26 07:05:24;;;;;;;16.48;15.27;;;18.40;72.80;;;;;;5161121;28;20097;-69
2021/06/26 07:07:56;;;;;;;16.52;15.30;;;18.50;72.90;;;;;;5158675;28;20041;-70
2021/06/26 07:10:28;;;;;;;17.20;15.90;;;18.60;72.20;;;;;;5160928;28;20140;-69
2021/06/26 07:13:00;;;;;;;17.00;15.70;;;18.70;72.60;;;;;;5160160;28;20051;-70
2021/06/26 07:15:32;;;;;;;16.90;15.60;;;18.80;72.60;;;;;;5160082;28;20046;-70
2021/06/26 07:18:05;;;;;;;16.92;15.63;;;18.90;72.50;;;;;;5159309;28;20664;-71
2021/06/26 07:20:38;;;;;;;17.40;15.98;;;18.90;72.80;;;;;;5159444;28;20042;-71
2021/06/26 07:23:10;;;;;;;17.20;15.90;;;19.00;72.40;;;;;;5160717;28;20547;-69
2021/06/26 07:25:42;;;;;;;17.45;16.15;;;19.10;71.50;;;;;;5159467;28;20038;-70
2021/06/26 07:28:14;;;;;;;17.27;15.98;;;19.20;71.70;;;;;;5160801;28;20443;-70
2021/06/26 07:30:46;;;;;;;16.85;15.65;;;19.20;71.30;;;;;;5159797;28;20460;-71
2021/06/26 07:33:18;;;;;;;17.58;16.27;;;19.20;71.30;;;;;;5160664;28;20090;-69
2021/06/26 07:35:50;;;;;;;16.25;15.05;;;19.30;71.60;;;;;;5158191;28;20516;-70
2021/06/26 07:38:23;;;;;;;17.15;15.85;;;19.40;71.80;;;;;;5157617;28;20062;-70
2021/06/26 07:40:55;;;;;;;17.05;15.85;;;19.50;70.20;;;;;;5159491;28;20050;-71
2021/06/26 07:43:27;;;;;;;16.98;15.77;;;19.60;70.20;;;;;;5159744;28;20042;-71
2021/06/26 07:46:00;;;;;;;16.98;15.77;;;19.70;70.10;;;;;;5158616;28;20130;-70
2021/06/26 07:48:32;;;;;;;17.13;15.93;;;19.80;69.80;;;;;;5158551;28;20081;-70
2021/06/26 07:51:04;;;;;;;17.13;15.93;;;19.80;69.80;;;;;;5158250;28;20034;-71
2021/06/26 07:53:36;;;;;;;17.35;16.05;;;19.90;70.60;;;;;;5160090;28;20112;-70
2021/06/26 07:56:08;;;;;;;17.30;16.00;;;19.90;69.80;;;;;;5160527;28;20062;-71
2021/06/26 07:58:40;;;;;;;17.85;16.45;;;20.00;68.90;;;;;;5157960;28;20054;-70
2021/06/26 08:01:14;;;;;;;17.38;16.08;;;20.00;69.40;;;;;;5159803;28;20500;-70
2021/06/26 08:03:46;;;;;;;17.92;16.63;;;20.10;69.00;;;;;;5157638;28;20517;-70
2021/06/26 08:06:18;;;;;;;18.30;16.90;;;20.20;68.70;;;;;;5158581;28;20104;-70
2021/06/26 08:08:50;;;;;;;18.20;16.80;;;20.20;68.80;;;;;;5153601;28;20050;-71
2021/06/26 08:11:22;;;;;;;18.75;17.25;;;20.30;68.40;;;;;;5157377;28;20431;-71
2021/06/26 08:13:56;;;;;;;18.00;16.65;;;20.50;69.20;;;;;;5159714;28;20078;-71
2021/06/26 08:16:28;;;;;;;17.98;16.67;;;20.50;69.20;;;;;;5156174;28;20073;-70
2021/06/26 08:19:00;;;;;;;17.88;16.58;;;20.60;69.70;;;;;;5159127;28;20062;-70
2021/06/26 08:21:32;;;;;;;17.40;16.02;;;20.60;68.60;;;;;;5156936;28;20037;-70
2021/06/26 08:24:05;;;;;;;17.88;16.48;;;20.70;69.20;;;;;;5156491;28;20520;-70
2021/06/26 08:26:48;;;;;;;17.27;16.08;;;20.70;68.90;;;;;;5155778;28;20602;-71
2021/06/26 08:29:20;;;;;;;18.17;16.88;;;20.80;69.10;;;;;;5164054;28;20069;-70
2021/06/26 08:31:52;;;;;;;17.88;16.58;;;20.90;68.50;;;;;;5161091;28;20046;-70
2021/06/26 08:34:24;;;;;;;17.55;16.25;;;21.00;69.30;;;;;;5164533;28;20049;-71
2021/06/26 08:36:56;;;;;;;17.45;16.15;;;21.00;68.70;;;;;;5160924;28;20057;-70
2021/06/26 08:39:28;;;;;;;17.83;16.27;;;21.00;68.50;;;;;;5161732;28;20038;-69
2021/06/26 08:42:00;;;;;;;17.48;16.10;;;21.10;68.20;;;;;;5158348;28;20046;-70
2021/06/26 08:44:32;;;;;;;17.35;15.95;;;21.10;69.20;;;;;;5162397;28;20093;-70
2021/06/26 08:47:04;;;;;;;17.25;15.95;;;21.20;68.10;;;;;;5172779;28;20074;-70
2021/06/26 08:49:36;;;;;;;17.27;15.98;;;21.20;67.60;;;;;;5159048;28;20049;-70
2021/06/26 08:52:08;;;;;;;17.08;15.88;;;21.30;67.70;;;;;;5162269;28;20070;-70
2021/06/26 08:54:40;;;;;;;17.48;16.27;;;21.30;66.50;;;;;;5160723;28;20157;-70
2021/06/26 08:57:12;;;;;;;17.08;15.88;;;21.30;67.90;;;;;;5160502;28;20073;-69
2021/06/26 08:59:44;;;;;;;17.33;16.10;;;21.30;66.70;;;;;;5163626;28;20423;-70
2021/06/26 09:02:21;;;;;;;17.27;15.98;;;21.40;66.50;;;;;;5159130;28;20043;-70
2021/06/26 09:04:53;;;;;;;16.73;15.52;;;21.30;66.00;;;;;;5160834;28;20607;-71
2021/06/26 09:07:30;;;;;;;17.20;15.80;;;21.40;66.20;;;;;;5160373;28;20053;-70
2021/06/26 09:10:11;;;;;;;16.70;15.50;;;21.40;66.50;;;;;;5162781;28;20088;-70
2021/06/26 09:12:44;;;;;;;17.30;15.90;;;21.40;66.40;;;;;;5162091;28;20144;-70
2021/06/26 09:15:27;;;;;;;16.85;15.65;;;21.50;66.30;;;;;;5162438;28;20068;-70
2021/06/26 09:18:11;;;;;;;16.95;15.55;;;21.60;66.40;;;;;;5145344;28;20042;-69
2021/06/26 09:20:46;;;;;;;17.25;16.05;;;21.60;65.40;;;;;;5158605;28;20420;-69
2021/06/26 09:23:29;;;;;;;17.25;15.95;;;21.70;66.70;;;;;;5163870;28;20050;-69
2021/06/26 09:26:12;;;;;;;17.42;16.13;;;21.90;66.50;;;;;;5162958;28;20126;-69
2021/06/26 09:28:44;;;;;;;16.85;15.55;;;22.00;65.30;;;;;;5159820;28;20046;-69
2021/06/26 09:31:17;;;;;;;16.75;15.55;;;22.00;64.60;;;;;;5157604;28;20065;-70
2021/06/26 09:34:00;;;;;;;16.70;15.40;;;22.00;66.10;;;;;;5161312;28;20074;-70
2021/06/26 09:36:32;;;;;;;17.45;16.20;;;22.10;65.70;;;;;;5160323;28;20606;-69
2021/06/26 09:39:10;;;;;;;17.30;15.90;;;22.10;65.40;;;;;;5163136;28;20065;-72
2021/06/26 09:41:50;;;;;;;16.92;15.73;;;22.20;65.20;;;;;;5159899;28;20050;-70
2021/06/26 09:44:21;;;;;;;16.95;15.75;;;22.20;64.60;;;;;;5161407;28;20502;-70
2021/06/26 09:46:53;;;;;;;17.25;15.95;;;22.20;63.90;;;;;;5158429;28;20120;-69
2021/06/26 09:49:29;;;;;;;17.13;15.80;;;22.10;63.10;;;;;;5160852;28;20066;-69
2021/06/26 09:52:02;;;;;;;17.50;16.20;;;22.10;62.90;;;;;;5149664;28;20681;-70
2021/06/26 09:54:37;;;;;;;17.33;16.13;;;22.10;63.20;;;;;;5158817;28;20077;-70
2021/06/26 09:57:09;;;;;;;17.13;15.88;;;22.10;63.20;;;;;;5159159;28;20142;-69
2021/06/26 09:59:43;;;;;;;16.83;15.63;;;22.20;63.90;;;;;;5160083;28;20046;-72
2021/06/26 10:02:22;;;;;;;17.17;15.88;;;22.30;64.00;;;;;;5160828;28;20444;-72
2021/06/26 10:04:55;;;;;;;17.08;15.80;;;22.30;64.00;;;;;;5157554;28;20097;-70
2021/06/26 10:07:32;;;;;;;17.48;16.17;;;22.40;63.20;;;;;;5155960;28;20066;-70
2021/06/26 10:10:05;;;;;;;17.23;15.82;;;22.50;64.30;;;;;;5176233;28;20432;-70
2021/06/26 10:12:37;;;;;;;17.50;16.20;;;22.50;65.40;;;;;;5156708;28;20066;-71
2021/06/26 10:15:11;;;;;;;17.90;16.55;;;22.60;64.00;;;;;;5159766;28;20045;-70
2021/06/26 10:17:44;;;;;;;18.02;16.73;;;22.60;63.00;;;;;;5160397;28;20045;-69
2021/06/26 10:20:20;;;;;;;17.35;16.05;;;22.70;62.90;;;;;;5159916;28;20038;-70
2021/06/26 10:22:53;;;;;;;17.35;16.15;;;22.80;62.20;;;;;;5160310;28;20050;-70
2021/06/26 10:25:35;;;;;;;17.42;16.23;;;22.80;62.70;;;;;;5162501;28;20129;-70
2021/06/26 10:28:13;;;;;;;17.02;15.82;;;22.80;62.50;;;;;;5157463;28;20127;-71
2021/06/26 10:31:11;;;;;;;17.55;16.25;;;22.90;60.90;;;;;;5174679;28;20049;-71
2021/06/26 10:33:46;;;;;;;17.33;16.08;;;22.90;62.40;;;;;;5164375;28;20050;-70
2021/06/26 10:36:18;;;;;;;17.52;16.33;;;23.00;63.10;;;;;;5158558;28;20066;-70
2021/06/26 10:38:50;;;;;;;17.20;16.00;;;23.00;62.30;;;;;;5161479;28;20042;-73
2021/06/26 10:41:22;;;;;;;17.63;16.33;;;23.10;61.70;;;;;;5156355;28;20100;-71
2021/06/26 10:43:59;;;;;;;17.55;16.33;;;23.10;62.20;;;;;;5158201;28;20125;-70
2021/06/26 10:46:31;;;;;;;17.35;16.15;;;23.20;61.90;;;;;;5158264;28;20047;-70
2021/06/26 10:49:06;;;;;;;17.73;16.52;;;23.20;63.00;;;;;;5158049;28;20053;-71
2021/06/26 10:51:40;;;;;;;17.20;16.00;;;23.20;61.60;;;;;;5164546;28;20067;-71
2021/06/26 10:54:16;;;;;;;17.25;16.05;;;23.30;62.10;;;;;;5157064;28;20046;-69
2021/06/26 10:56:49;;;;;;;17.15;15.95;;;23.40;61.20;;;;;;5152964;28;20050;-70
2021/06/26 10:59:21;;;;;;;18.00;16.70;;;23.50;61.20;;;;;;5155988;28;20037;-71
2021/06/26 11:01:58;;;;;;;17.40;16.20;;;23.50;62.00;;;;;;5158487;28;20092;-70
2021/06/26 11:04:32;;;;;;;17.60;16.33;;;23.50;62.10;;;;;;5159051;28;20062;-70
2021/06/26 11:07:10;;;;;;;17.40;16.20;;;23.60;60.50;;;;;;5156635;28;20121;-71
2021/06/26 11:09:46;;;;;;;17.25;16.05;;;23.70;60.30;;;;;;5159796;28;20046;-70
2021/06/26 11:12:20;;;;;;;17.38;15.98;;;23.70;60.40;;;;;;5161375;28;20105;-70
2021/06/26 11:14:57;;;;;;;17.40;16.10;;;23.70;58.80;;;;;;5155524;28;20046;-70
2021/06/26 11:17:40;;;;;;;17.42;16.10;;;23.70;59.10;;;;;;5158480;28;20056;-70
2021/06/26 11:20:15;;;;;;;17.77;16.48;;;23.70;59.30;;;;;;5154713;28;20526;-69
2021/06/26 11:22:59;;;;;;;17.25;15.95;;;23.90;59.70;;;;;;5159321;28;20066;-70
2021/06/26 11:25:32;;;;;;;17.70;16.40;;;24.00;59.20;;;;;;5157891;28;20484;-70
2021/06/26 11:28:07;;;;;;;17.65;16.40;;;24.00;58.90;;;;;;5159491;28;20124;-70
2021/06/26 11:30:43;;;;;;;17.80;16.50;;;24.10;58.20;;;;;;5160180;28;20057;-70
2021/06/26 11:33:15;;;;;;;17.35;16.15;;;24.00;57.40;;;;;;5156916;28;20046;-71
2021/06/26 11:35:47;;;;;;;17.17;15.88;;;24.00;58.50;;;;;;5159471;28;20451;-71
2021/06/26 11:38:19;;;;;;;17.48;16.08;;;24.20;58.70;;;;;;5174490;28;20045;-71
2021/06/26 11:41:03;;;;;;;17.20;16.00;;;24.20;56.30;;;;;;5161297;28;20053;-70
2021/06/26 11:43:36;;;;;;;18.05;16.73;;;24.20;56.80;;;;;;5158672;28;20912;-70
2021/06/26 11:46:11;;;;;;;17.88;16.58;;;24.30;57.40;;;;;;5158722;28;21799;-71
2021/06/26 11:48:45;;;;;;;17.40;16.08;;;24.40;57.60;;;;;;5154674;28;20050;-70
2021/06/26 11:51:20;;;;;;;17.40;16.20;;;24.40;56.80;;;;;;5156869;28;20077;-70
2021/06/26 11:53:52;;;;;;;18.08;16.77;;;24.40;58.10;;;;;;5149493;28;20039;-70
2021/06/26 11:56:24;;;;;;;18.05;16.75;;;24.50;57.20;;;;;;5149674;28;20538;-70
2021/06/26 11:58:58;;;;;;;17.48;16.27;;;24.60;57.90;;;;;;5150563;28;20721;-70
2021/06/26 12:01:36;;;;;;;17.58;16.38;;;24.70;58.20;;;;;;5155719;28;20100;-71
2021/06/26 12:04:08;;;;;;;17.77;16.48;;;24.70;57.40;;;;;;5155131;28;20053;-70
2021/06/26 12:06:40;;;;;;;17.30;16.10;;;24.80;56.30;;;;;;5152421;28;20161;-70
2021/06/26 12:09:15;;;;;;;17.23;16.02;;;24.90;56.70;;;;;;5155953;28;20074;-70
2021/06/26 12:11:47;;;;;;;17.63;16.42;;;24.90;55.70;;;;;;5156719;28;20427;-71
2021/06/26 12:14:33;;;;;;;17.67;16.33;;;25.00;57.40;;;;;;5157050;28;20105;-70
2021/06/26 12:17:13;;;;;;;17.63;16.35;;;25.00;55.00;;;;;;5151643;28;20047;-70
2021/06/26 12:19:45;;;;;;;17.65;16.35;;;24.90;55.20;;;;;;5154320;28;20129;-70
2021/06/26 12:22:22;;;;;;;17.70;16.40;;;25.00;56.60;;;;;;5144059;28;20116;-71
2021/06/26 12:25:05;;;;;;;17.95;16.65;;;25.10;56.00;;;;;;5156779;28;20161;-71
2021/06/26 12:27:37;;;;;;;18.35;17.05;;;25.00;55.70;;;;;;5156600;28;20050;-71
2021/06/26 12:30:16;;;;;;;17.67;16.27;;;25.10;56.40;;;;;;5155157;28;20101;-70
2021/06/26 12:32:48;;;;;;;18.33;17.02;;;25.20;55.90;;;;;;5154954;28;20053;-71
2021/06/26 12:35:29;;;;;;;17.50;16.30;;;25.30;54.90;;;;;;5158534;28;20050;-70
2021/06/26 12:38:01;;;;;;;18.30;16.90;;;25.40;54.40;;;;;;5141815;28;20061;-72
2021/06/26 12:40:44;;;;;;;17.85;16.55;;;25.30;53.70;;;;;;5161185;28;20053;-71
2021/06/26 12:43:16;;;;;;;18.15;16.63;;;25.40;55.50;;;;;;5132277;28;20424;-70
2021/06/26 12:45:51;;;;;;;18.02;16.73;;;25.50;55.10;;;;;;5160574;28;20444;-70
2021/06/26 12:48:27;;;;;;;18.25;16.90;;;25.50;53.10;;;;;;5158567;28;20056;-70
2021/06/26 12:51:10;;;;;;;18.02;16.73;;;25.50;53.90;;;;;;5156352;28;20073;-70
2021/06/26 12:53:46;;;;;;;18.48;17.17;;;25.60;54.60;;;;;;5146582;28;20571;-71
2021/06/26 12:56:26;;;;;;;18.77;17.38;;;25.70;54.70;;;;;;5155624;28;20054;-70
2021/06/26 12:58:59;;;;;;;;;;;25.70;54.90;;;;;;5154143;28;20117;-70